Time;durP1;ratioP1;P1;durP2;ratioP2;P2;SDS_P1;SDS_P2;PMS_P1;PMS_P2;Temp;Humidity;BMP_temperature;BMP_pressure;BME280_temperature;BME280_humidity;BME280_pressure;Samples;Min_cycle;Max_cycle;Signal;HPM_P1;HPM_P2
2024/01/21 00:01:16;;;;;;;14.35;7.53;;;0.60;99.90;;;;;;5012391;28;20037;-82
2024/01/21 00:03:41;;;;;;;15.55;8.55;;;0.60;99.90;;;;;;5019431;28;20040;-82
2024/01/21 00:06:07;;;;;;;17.67;8.63;;;0.60;99.90;;;;;;5030759;28;20049;-82
2024/01/21 00:08:33;;;;;;;16.80;8.68;;;0.90;99.90;;;;;;5028524;28;20052;-83
2024/01/21 00:10:58;;;;;;;13.25;8.05;;;0.60;99.90;;;;;;5028877;28;20052;-83
2024/01/21 00:13:24;;;;;;;13.75;7.82;;;0.60;99.90;;;;;;5024523;28;20059;-83
2024/01/21 00:15:50;;;;;;;15.23;7.90;;;0.60;99.90;;;;;;5025711;28;20575;-83
2024/01/21 00:18:16;;;;;;;15.75;8.20;;;0.60;99.90;;;;;;5028376;28;20146;-83
2024/01/21 00:20:42;;;;;;;14.63;7.95;;;0.60;99.90;;;;;;5030200;28;20483;-82
2024/01/21 00:23:08;;;;;;;17.77;7.72;;;0.80;99.90;;;;;;5029093;28;20107;-82
2024/01/21 00:25:34;;;;;;;13.98;8.05;;;1.00;99.90;;;;;;5024164;28;20053;-83
2024/01/21 00:28:00;;;;;;;17.42;8.65;;;0.60;99.90;;;;;;5019430;28;20055;-83
2024/01/21 00:30:26;;;;;;;13.85;8.15;;;0.60;99.90;;;;;;4998669;28;20057;-83
2024/01/21 00:32:52;;;;;;;13.80;7.90;;;0.80;99.90;;;;;;5026548;28;20384;-83
2024/01/21 00:35:18;;;;;;;16.33;8.45;;;0.60;99.90;;;;;;5031153;28;20104;-83
2024/01/21 00:37:46;;;;;;;16.52;8.63;;;0.60;99.90;;;;;;5027988;28;20107;-83
2024/01/21 00:40:12;;;;;;;14.40;8.30;;;0.60;99.90;;;;;;5028917;28;20045;-83
2024/01/21 00:42:38;;;;;;;13.98;7.10;;;0.50;99.90;;;;;;5029404;28;20513;-83
2024/01/21 00:45:04;;;;;;;14.18;7.32;;;1.30;99.90;;;;;;5029388;28;20128;-83
2024/01/21 00:47:30;;;;;;;20.67;9.02;;;0.50;99.90;;;;;;5026416;28;20041;-84
2024/01/21 00:49:56;;;;;;;15.90;8.68;;;0.50;99.90;;;;;;5029511;28;20574;-83
2024/01/21 00:52:22;;;;;;;16.08;7.85;;;0.50;99.90;;;;;;5012192;28;20129;-83
2024/01/21 00:54:48;;;;;;;15.77;8.20;;;0.50;99.90;;;;;;5010977;28;20128;-83
2024/01/21 00:57:13;;;;;;;15.82;8.55;;;0.50;99.90;;;;;;4999503;28;20186;-84
2024/01/21 00:59:39;;;;;;;16.63;8.00;;;0.50;99.90;;;;;;5013143;28;20050;-84
2024/01/21 01:02:04;;;;;;;14.45;7.35;;;1.10;99.90;;;;;;5026839;28;20096;-84
2024/01/21 01:04:31;;;;;;;13.68;7.07;;;0.50;99.90;;;;;;5010813;28;20054;-83
2024/01/21 01:06:56;;;;;;;16.00;8.40;;;0.60;99.90;;;;;;5029591;28;20103;-84
2024/01/21 01:09:22;;;;;;;15.55;7.85;;;0.50;99.90;;;;;;5017242;28;20557;-83
2024/01/21 01:11:47;;;;;;;15.48;8.20;;;1.60;99.90;;;;;;5016711;28;20066;-84
2024/01/21 01:14:13;;;;;;;15.70;8.05;;;0.60;99.90;;;;;;5027908;28;20053;-84
2024/01/21 01:16:39;;;;;;;16.30;7.75;;;0.60;99.90;;;;;;5027447;28;20410;-84
2024/01/21 01:19:06;;;;;;;13.48;7.38;;;1.20;99.90;;;;;;5026480;28;20582;-84
2024/01/21 01:21:32;;;;;;;13.75;7.30;;;0.60;99.90;;;;;;5021879;28;20042;-82
2024/01/21 01:23:57;;;;;;;13.27;6.97;;;0.60;99.90;;;;;;5014199;28;20108;-82
2024/01/21 01:26:23;;;;;;;16.08;7.38;;;1.50;99.90;;;;;;5026945;28;20053;-82
2024/01/21 01:28:50;;;;;;;12.38;6.30;;;0.60;99.90;;;;;;5031797;28;20053;-82
2024/01/21 01:31:22;;;;;;;11.90;6.13;;;0.70;99.90;;;;;;5026888;28;20064;-84
2024/01/21 01:33:47;;;;;;;12.20;7.30;;;0.60;99.90;;;;;;5033485;28;20053;-83
2024/01/21 01:36:16;;;;;;;13.98;7.55;;;0.70;99.90;;;;;;5016693;28;20052;-84
2024/01/21 01:38:42;;;;;;;13.88;7.22;;;0.70;99.90;;;;;;5015437;28;20054;-84
2024/01/21 01:41:08;;;;;;;12.43;6.53;;;0.70;99.90;;;;;;5020510;28;20080;-83
2024/01/21 01:43:36;;;;;;;14.05;6.50;;;0.70;99.90;;;;;;5033303;28;20053;-84
2024/01/21 01:46:03;;;;;;;13.02;6.22;;;1.20;99.90;;;;;;5017225;28;20057;-84
2024/01/21 01:48:30;;;;;;;13.13;6.85;;;0.70;99.90;;;;;;5027222;28;20399;-83
2024/01/21 01:50:59;;;;;;;12.20;5.75;;;1.20;99.90;;;;;;5025832;28;20410;-84
2024/01/21 01:53:25;;;;;;;12.68;5.90;;;0.80;99.90;;;;;;5023902;28;20128;-84
2024/01/21 01:55:51;;;;;;;12.60;6.25;;;0.80;99.90;;;;;;5020816;28;20550;-85
2024/01/21 01:58:20;;;;;;;11.95;5.72;;;0.80;99.90;;;;;;5033793;28;20494;-84
2024/01/21 02:00:47;;;;;;;12.15;5.72;;;0.80;99.90;;;;;;5023395;28;20422;-84
2024/01/21 02:03:14;;;;;;;9.52;4.95;;;1.00;99.90;;;;;;5026558;28;20491;-84
2024/01/21 02:05:39;;;;;;;9.65;5.72;;;0.80;99.90;;;;;;5022333;28;20473;-84
2024/01/21 02:08:06;;;;;;;12.23;5.70;;;0.80;99.90;;;;;;5016527;28;20068;-84
2024/01/21 02:10:31;;;;;;;11.52;4.95;;;0.80;99.90;;;;;;5015347;28;20041;-84
2024/01/21 02:12:57;;;;;;;11.15;5.28;;;1.00;99.90;;;;;;5027487;28;20064;-84
2024/01/21 02:15:23;;;;;;;12.50;5.63;;;0.80;99.90;;;;;;4997878;28;20132;-85
2024/01/21 02:17:49;;;;;;;10.68;5.35;;;1.20;99.90;;;;;;5031313;28;20120;-85
2024/01/21 02:20:15;;;;;;;9.50;4.28;;;0.90;99.90;;;;;;5032286;28;20049;-84
2024/01/21 02:22:41;;;;;;;10.38;5.72;;;0.90;99.90;;;;;;5028270;28;20046;-84
2024/01/21 02:25:08;;;;;;;9.85;4.68;;;1.60;99.90;;;;;;5028510;28;20059;-84
2024/01/21 02:27:34;;;;;;;12.27;4.75;;;0.80;99.90;;;;;;5014355;28;20050;-84
2024/01/21 02:30:00;;;;;;;11.82;5.30;;;0.80;99.90;;;;;;5028788;28;20056;-85
2024/01/21 02:32:26;;;;;;;9.55;4.63;;;0.80;99.90;;;;;;5031877;28;20050;-85
2024/01/21 02:34:52;;;;;;;11.02;4.13;;;0.80;99.90;;;;;;5031961;28;20073;-83
2024/01/21 02:37:20;;;;;;;9.07;4.05;;;0.80;99.90;;;;;;5014731;28;20049;-83
2024/01/21 02:39:45;;;;;;;9.73;3.95;;;0.80;99.90;;;;;;5031828;28;20241;-84
2024/01/21 02:42:11;;;;;;;8.93;3.95;;;0.80;99.90;;;;;;5031745;28;20044;-84
2024/01/21 02:44:37;;;;;;;7.38;3.53;;;0.80;99.90;;;;;;5029334;28;20406;-84
2024/01/21 02:47:03;;;;;;;10.38;4.63;;;0.80;99.90;;;;;;5009794;28;20095;-84
2024/01/21 02:49:30;;;;;;;10.40;3.72;;;0.80;99.90;;;;;;5023263;28;20449;-84
2024/01/21 02:51:56;;;;;;;11.32;4.93;;;0.80;99.90;;;;;;5030880;28;20095;-84
2024/01/21 02:54:22;;;;;;;9.25;3.40;;;0.80;99.90;;;;;;5031783;28;20049;-83
2024/01/21 02:56:48;;;;;;;7.13;3.10;;;0.80;99.90;;;;;;5015518;28;20045;-84
2024/01/21 02:59:14;;;;;;;8.55;3.40;;;0.90;99.90;;;;;;5026115;28;20055;-83
2024/01/21 03:01:39;;;;;;;7.80;3.63;;;1.40;99.90;;;;;;5015186;28;20066;-84
2024/01/21 03:04:05;;;;;;;11.75;3.58;;;0.90;99.90;;;;;;5018464;28;20113;-83
2024/01/21 03:06:33;;;;;;;7.25;3.08;;;1.60;99.90;;;;;;5028447;28;20391;-84
2024/01/21 03:08:59;;;;;;;6.72;3.00;;;1.50;99.90;;;;;;5024883;28;20406;-84
2024/01/21 03:11:24;;;;;;;6.28;2.90;;;0.90;99.90;;;;;;5029391;28;20137;-84
2024/01/21 03:13:50;;;;;;;7.45;3.78;;;1.50;99.90;;;;;;5017517;28;20396;-84
2024/01/21 03:16:16;;;;;;;7.88;2.72;;;0.90;99.90;;;;;;5024864;28;20084;-84
2024/01/21 03:18:45;;;;;;;7.88;3.05;;;0.90;99.90;;;;;;5025318;28;20120;-84
2024/01/21 03:21:11;;;;;;;7.03;2.88;;;0.90;99.90;;;;;;5029258;28;20045;-84
2024/01/21 03:23:36;;;;;;;7.82;2.70;;;1.00;99.90;;;;;;5011816;28;20066;-84
2024/01/21 03:26:02;;;;;;;6.60;2.95;;;1.10;99.90;;;;;;5011631;28;20596;-84
2024/01/21 03:28:28;;;;;;;6.32;2.42;;;0.90;99.90;;;;;;5014551;28;20491;-83
2024/01/21 03:30:53;;;;;;;5.47;2.35;;;1.00;99.90;;;;;;5031661;28;20056;-84
2024/01/21 03:33:20;;;;;;;7.20;2.92;;;1.00;99.90;;;;;;5031059;28;20057;-83
2024/01/21 03:35:47;;;;;;;6.45;2.42;;;1.00;99.90;;;;;;5027243;28;20053;-84
2024/01/21 03:38:13;;;;;;;5.28;2.13;;;1.00;99.90;;;;;;5014583;28;20045;-84
2024/01/21 03:40:39;;;;;;;4.88;2.33;;;1.20;99.90;;;;;;5012357;28;20049;-84
2024/01/21 03:43:04;;;;;;;6.78;2.58;;;1.00;99.90;;;;;;5031208;28;20065;-83
2024/01/21 03:45:30;;;;;;;5.22;2.05;;;1.10;99.90;;;;;;5014348;28;20092;-84
2024/01/21 03:47:56;;;;;;;6.07;2.33;;;1.10;99.90;;;;;;5030637;28;20391;-84
2024/01/21 03:50:22;;;;;;;4.35;1.63;;;1.10;99.90;;;;;;5009407;28;20046;-85
2024/01/21 03:52:49;;;;;;;4.38;1.95;;;1.10;99.90;;;;;;5021729;28;20506;-84
2024/01/21 03:55:19;;;;;;;10.85;2.13;;;1.10;99.90;;;;;;5019466;28;20096;-85
2024/01/21 03:57:45;;;;;;;4.38;1.70;;;1.10;99.90;;;;;;5027550;28;20211;-84
2024/01/21 04:00:11;;;;;;;6.03;1.85;;;1.80;99.90;;;;;;5020684;28;20108;-85
2024/01/21 04:02:37;;;;;;;4.07;1.60;;;1.10;99.90;;;;;;5030859;28;20041;-83
2024/01/21 04:05:05;;;;;;;3.38;1.52;;;1.10;99.90;;;;;;5030523;28;20175;-85
2024/01/21 04:07:31;;;;;;;4.82;1.60;;;0.60;99.90;;;;;;5030274;28;20103;-85
2024/01/21 04:09:57;;;;;;;5.20;1.90;;;1.10;99.90;;;;;;5023022;28;20548;-85
2024/01/21 04:12:22;;;;;;;4.20;1.52;;;1.10;99.90;;;;;;5030157;28;20177;-84
2024/01/21 04:14:48;;;;;;;4.38;1.70;;;1.50;99.90;;;;;;5030655;28;20104;-85
2024/01/21 04:17:14;;;;;;;5.15;1.80;;;1.10;99.90;;;;;;5027664;28;20053;-85
2024/01/21 04:19:40;;;;;;;6.15;1.88;;;1.00;99.90;;;;;;5010801;28;20048;-85
2024/01/21 04:22:06;;;;;;;4.15;1.40;;;1.00;99.90;;;;;;5029305;28;20049;-85
2024/01/21 04:24:31;;;;;;;5.28;1.90;;;1.10;99.90;;;;;;5019558;28;20057;-85
2024/01/21 04:26:57;;;;;;;5.18;1.92;;;1.10;99.90;;;;;;5029983;28;20059;-85
2024/01/21 04:29:23;;;;;;;4.95;1.67;;;1.10;99.90;;;;;;5028280;28;20110;-85
2024/01/21 04:31:48;;;;;;;4.00;1.20;;;1.10;99.90;;;;;;5029955;28;20388;-85
2024/01/21 04:34:14;;;;;;;5.40;1.42;;;1.60;99.90;;;;;;5027423;28;20049;-86
2024/01/21 04:36:40;;;;;;;5.05;1.38;;;1.20;99.90;;;;;;5013703;28;20889;-85
2024/01/21 04:39:08;;;;;;;3.42;1.40;;;1.20;99.90;;;;;;5033131;28;20057;-85
2024/01/21 04:41:34;;;;;;;3.80;1.50;;;1.20;99.90;;;;;;5033715;28;20072;-85
2024/01/21 04:44:01;;;;;;;3.10;1.35;;;1.20;99.90;;;;;;5033499;28;20041;-85
2024/01/21 04:46:26;;;;;;;3.97;1.52;;;1.20;99.90;;;;;;5033358;28;20059;-84
2024/01/21 04:48:52;;;;;;;4.03;1.70;;;1.30;99.90;;;;;;5024091;28;20064;-85
2024/01/21 04:51:21;;;;;;;5.32;1.50;;;1.30;99.90;;;;;;5029941;28;20076;-85
2024/01/21 04:53:47;;;;;;;5.20;1.80;;;1.30;99.90;;;;;;5025864;28;20037;-85
2024/01/21 04:56:17;;;;;;;5.93;1.60;;;1.30;99.90;;;;;;5026818;28;20048;-85
2024/01/21 04:58:43;;;;;;;6.15;1.60;;;1.30;99.90;;;;;;5025137;28;20501;-85
2024/01/21 05:01:09;;;;;;;3.65;1.25;;;1.30;99.90;;;;;;5020699;28;20128;-85
2024/01/21 05:03:35;;;;;;;4.95;1.60;;;1.40;99.90;;;;;;5028929;28;20112;-86
2024/01/21 05:06:01;;;;;;;2.70;1.00;;;1.40;99.90;;;;;;5029845;28;20486;-85
2024/01/21 05:08:27;;;;;;;3.50;1.33;;;1.40;99.90;;;;;;5029705;28;20068;-85
2024/01/21 05:10:55;;;;;;;4.72;1.27;;;1.40;99.90;;;;;;5028159;28;20041;-86
2024/01/21 05:13:21;;;;;;;3.47;1.52;;;1.40;99.90;;;;;;5024669;28;20038;-85
2024/01/21 05:15:47;;;;;;;3.55;1.30;;;1.40;99.90;;;;;;4993860;28;20053;-85
2024/01/21 05:18:12;;;;;;;3.13;1.38;;;1.40;99.90;;;;;;5020936;28;20045;-85
2024/01/21 05:20:38;;;;;;;4.20;1.50;;;1.40;99.90;;;;;;5027136;28;20549;-85
2024/01/21 05:23:04;;;;;;;4.93;1.50;;;2.60;99.90;;;;;;5027332;28;20553;-85
2024/01/21 05:25:30;;;;;;;3.63;1.40;;;1.40;99.90;;;;;;5002626;28;20096;-85
2024/01/21 05:27:56;;;;;;;4.10;1.63;;;1.40;99.90;;;;;;5029838;28;20053;-85
2024/01/21 05:30:22;;;;;;;3.78;1.40;;;1.40;99.90;;;;;;5027878;28;20120;-84
2024/01/21 05:32:50;;;;;;;5.88;1.30;;;2.30;99.90;;;;;;5028921;28;20045;-85
2024/01/21 05:35:17;;;;;;;4.35;1.48;;;0.50;99.90;;;;;;5029461;28;20537;-85
2024/01/21 05:37:43;;;;;;;3.92;1.30;;;1.40;99.90;;;;;;5029741;28;20037;-86
2024/01/21 05:40:09;;;;;;;3.55;1.30;;;1.20;99.90;;;;;;5028796;28;20053;-86
2024/01/21 05:42:37;;;;;;;4.95;1.63;;;1.40;99.90;;;;;;5026022;28;20080;-86
2024/01/21 05:45:06;;;;;;;5.22;1.70;;;1.40;99.90;;;;;;5027707;28;20050;-85
2024/01/21 05:47:31;;;;;;;7.32;2.20;;;1.40;99.90;;;;;;5022220;28;20056;-85
2024/01/21 05:49:58;;;;;;;4.20;1.30;;;1.40;99.90;;;;;;5026039;28;20132;-85
2024/01/21 05:52:24;;;;;;;4.15;1.70;;;1.80;99.90;;;;;;5024467;28;20107;-85
2024/01/21 05:54:50;;;;;;;3.45;1.40;;;1.50;99.90;;;;;;5023256;28;20049;-85
2024/01/21 05:57:15;;;;;;;5.50;2.05;;;1.50;99.90;;;;;;5016992;28;20125;-86
2024/01/21 05:59:41;;;;;;;4.70;1.98;;;1.50;99.90;;;;;;5020902;28;20046;-86
2024/01/21 06:02:10;;;;;;;5.00;2.00;;;1.50;99.90;;;;;;5023132;28;20065;-84
2024/01/21 06:04:36;;;;;;;5.30;2.13;;;1.50;99.90;;;;;;5014539;28;20056;-86
2024/01/21 06:07:02;;;;;;;7.18;3.00;;;2.40;99.90;;;;;;5026221;28;20041;-85
2024/01/21 06:09:27;;;;;;;4.15;1.55;;;1.60;99.90;;;;;;5024423;28;20038;-85
2024/01/21 06:11:54;;;;;;;4.70;1.75;;;1.60;99.90;;;;;;5024413;28;20088;-86
2024/01/21 06:14:20;;;;;;;6.00;2.30;;;2.10;99.90;;;;;;5029882;28;20041;-86
2024/01/21 06:16:46;;;;;;;5.50;2.53;;;1.60;99.90;;;;;;5027590;28;20060;-86
2024/01/21 06:19:12;;;;;;;4.90;2.13;;;1.60;99.90;;;;;;5031231;28;20042;-85
2024/01/21 06:21:43;;;;;;;6.70;2.28;;;1.60;99.90;;;;;;5024588;28;20136;-86
2024/01/21 06:24:12;;;;;;;7.93;2.45;;;1.60;99.90;;;;;;5003090;28;20057;-88
2024/01/21 06:26:41;;;;;;;5.28;2.33;;;1.60;99.90;;;;;;5025838;28;20050;-85
2024/01/21 06:29:07;;;;;;;6.28;2.40;;;1.60;99.90;;;;;;5027593;28;20116;-85
2024/01/21 06:31:33;;;;;;;5.32;2.17;;;2.30;99.90;;;;;;5025586;28;20408;-86
2024/01/21 06:33:59;;;;;;;5.60;2.53;;;1.60;99.90;;;;;;5030209;28;20042;-86
2024/01/21 06:36:25;;;;;;;7.38;2.78;;;2.20;99.90;;;;;;5020684;28;20125;-86
2024/01/21 06:38:51;;;;;;;6.53;2.65;;;1.60;99.90;;;;;;5028307;28;20053;-86
2024/01/21 06:41:17;;;;;;;5.82;2.50;;;1.70;99.90;;;;;;5021732;28;20048;-86
2024/01/21 06:43:44;;;;;;;7.40;2.88;;;1.60;99.90;;;;;;5024139;28;20053;-87
2024/01/21 06:46:10;;;;;;;8.77;3.22;;;1.60;99.90;;;;;;5028067;28;20477;-86
2024/01/21 06:48:36;;;;;;;7.50;3.22;;;1.60;99.90;;;;;;5027476;28;20045;-86
2024/01/21 06:51:09;;;;;;;6.53;3.08;;;1.60;99.90;;;;;;5025335;28;20404;-85
2024/01/21 06:53:35;;;;;;;6.78;2.92;;;1.60;99.90;;;;;;5025781;28;20387;-86
2024/01/21 06:56:06;;;;;;;6.25;2.50;;;1.80;99.90;;;;;;5021460;28;20443;-86
2024/01/21 06:58:35;;;;;;;6.60;3.20;;;1.60;99.90;;;;;;5023643;28;20044;-86
2024/01/21 07:01:01;;;;;;;8.40;3.50;;;1.70;99.90;;;;;;5023521;28;20480;-85
2024/01/21 07:03:27;;;;;;;7.70;3.30;;;1.70;99.90;;;;;;5023490;28;20060;-86
2024/01/21 07:05:52;;;;;;;9.25;3.38;;;1.70;99.90;;;;;;5010157;28;20419;-85
2024/01/21 07:08:21;;;;;;;6.60;3.00;;;1.70;99.90;;;;;;5024224;28;20049;-86
2024/01/21 07:10:47;;;;;;;7.70;3.30;;;1.70;99.90;;;;;;5022596;28;20053;-85
2024/01/21 07:13:12;;;;;;;8.52;3.50;;;1.70;99.90;;;;;;5023963;28;20046;-84
2024/01/21 07:15:39;;;;;;;6.88;3.60;;;2.30;99.90;;;;;;5027740;28;20234;-84
2024/01/21 07:18:06;;;;;;;5.85;3.03;;;1.70;99.90;;;;;;5024536;28;20041;-83
2024/01/21 07:20:32;;;;;;;7.50;3.17;;;1.70;99.90;;;;;;5030923;28;20437;-85
2024/01/21 07:22:58;;;;;;;7.40;3.58;;;1.70;99.90;;;;;;5010554;28;20068;-85
2024/01/21 07:25:24;;;;;;;9.85;3.42;;;1.70;99.90;;;;;;5028571;28;20061;-84
2024/01/21 07:27:50;;;;;;;7.82;3.40;;;2.30;99.90;;;;;;5020382;28;20048;-84
2024/01/21 07:30:17;;;;;;;9.23;4.20;;;1.90;99.90;;;;;;5029499;28;20134;-85
2024/01/21 07:32:42;;;;;;;9.05;3.95;;;1.70;99.90;;;;;;5028826;28;20057;-85
2024/01/21 07:35:11;;;;;;;9.20;4.10;;;1.70;99.90;;;;;;5029624;28;20401;-84
2024/01/21 07:37:37;;;;;;;9.40;3.95;;;1.70;99.90;;;;;;5031447;28;20049;-83
2024/01/21 07:40:04;;;;;;;8.40;3.83;;;1.70;99.90;;;;;;5031424;28;20053;-83
2024/01/21 07:42:30;;;;;;;8.52;3.85;;;1.70;99.90;;;;;;5021678;28;20096;-84
2024/01/21 07:44:56;;;;;;;8.07;3.70;;;1.70;99.90;;;;;;5028153;28;20045;-83
2024/01/21 07:47:21;;;;;;;8.50;4.55;;;1.70;99.90;;;;;;5028565;28;20046;-85
2024/01/21 07:49:47;;;;;;;7.75;3.92;;;1.70;99.90;;;;;;5028913;28;20095;-86
2024/01/21 07:52:13;;;;;;;7.82;3.63;;;1.80;99.90;;;;;;5014846;28;20049;-85
2024/01/21 07:54:38;;;;;;;7.38;3.42;;;1.70;99.90;;;;;;5030644;28;20099;-82
2024/01/21 07:57:05;;;;;;;7.47;3.53;;;1.70;99.90;;;;;;5027939;28;20128;-88
2024/01/21 07:59:30;;;;;;;9.77;4.25;;;1.70;99.90;;;;;;5025914;28;20060;-81
2024/01/21 08:01:56;;;;;;;9.05;3.22;;;1.70;99.90;;;;;;5032017;28;20049;-81
2024/01/21 08:04:22;;;;;;;7.82;3.88;;;1.70;99.90;;;;;;5017406;28;20081;-80
2024/01/21 08:06:47;;;;;;;9.75;4.10;;;1.70;99.90;;;;;;5028961;28;20049;-81
2024/01/21 08:09:13;;;;;;;9.55;4.30;;;2.50;99.90;;;;;;5031554;28;20057;-84
2024/01/21 08:11:39;;;;;;;9.13;4.05;;;1.70;99.90;;;;;;5028580;28;20049;-87
2024/01/21 08:14:05;;;;;;;9.25;4.57;;;1.70;99.90;;;;;;5014511;28;20076;-87
2024/01/21 08:16:30;;;;;;;9.88;4.22;;;1.70;99.90;;;;;;5025409;28;20048;-89
2024/01/21 08:18:56;;;;;;;9.23;4.70;;;1.70;99.90;;;;;;5019396;28;20412;-86
2024/01/21 08:21:21;;;;;;;8.38;4.45;;;1.70;99.90;;;;;;5010631;28;20405;-86
2024/01/21 08:23:47;;;;;;;8.20;4.75;;;1.70;99.90;;;;;;5016940;28;20478;-80
2024/01/21 08:26:13;;;;;;;8.82;4.70;;;2.00;99.90;;;;;;5030818;28;20069;-83
2024/01/21 08:28:39;;;;;;;9.77;4.78;;;1.70;99.90;;;;;;5031532;28;20064;-82
2024/01/21 08:31:04;;;;;;;11.07;4.65;;;1.80;99.90;;;;;;5018223;28;20049;-82
2024/01/21 08:33:30;;;;;;;12.55;3.97;;;1.80;99.90;;;;;;5029026;28;20247;-83
2024/01/21 08:35:56;;;;;;;9.90;4.22;;;1.80;99.90;;;;;;5028569;28;20046;-83
2024/01/21 08:38:21;;;;;;;9.07;4.28;;;1.80;99.90;;;;;;5029092;28;20439;-80
2024/01/21 08:40:47;;;;;;;11.32;5.05;;;1.90;99.90;;;;;;5000305;28;20582;-80
2024/01/21 08:43:13;;;;;;;9.50;4.68;;;1.80;99.90;;;;;;5031356;28;20376;-80
2024/01/21 08:45:38;;;;;;;9.82;4.93;;;1.80;99.90;;;;;;5019976;28;20414;-79
2024/01/21 08:48:07;;;;;;;9.90;4.68;;;1.80;99.90;;;;;;5028301;28;20050;-82
2024/01/21 08:50:33;;;;;;;9.18;4.63;;;1.90;99.90;;;;;;5030590;28;20514;-80
2024/01/21 08:52:59;;;;;;;10.05;4.75;;;1.80;99.90;;;;;;5030480;28;20491;-81
2024/01/21 08:55:25;;;;;;;10.73;4.55;;;1.80;99.90;;;;;;5025551;28;20049;-81
2024/01/21 08:57:51;;;;;;;8.25;3.95;;;1.80;99.90;;;;;;5027645;28;20060;-81
2024/01/21 09:00:16;;;;;;;8.52;4.47;;;1.90;99.90;;;;;;5015791;28;20111;-80
2024/01/21 09:02:42;;;;;;;8.98;5.07;;;1.80;99.90;;;;;;5010246;28;20400;-81
2024/01/21 09:05:08;;;;;;;8.43;4.68;;;1.90;99.90;;;;;;5021951;28;20056;-81
2024/01/21 09:07:34;;;;;;;13.07;6.05;;;1.90;99.90;;;;;;5028220;28;20457;-81
2024/01/21 09:09:59;;;;;;;9.63;4.43;;;2.10;99.90;;;;;;5029917;28;20045;-81
2024/01/21 09:12:25;;;;;;;8.40;3.92;;;2.20;99.90;;;;;;5030492;28;20479;-84
2024/01/21 09:14:51;;;;;;;10.57;4.93;;;2.00;99.90;;;;;;5028906;28;20041;-82
2024/01/21 09:17:16;;;;;;;8.25;4.40;;;2.10;99.90;;;;;;5024951;28;20057;-80
2024/01/21 09:19:43;;;;;;;11.40;5.00;;;2.10;99.90;;;;;;5030736;28;20059;-82
2024/01/21 09:22:09;;;;;;;10.07;4.50;;;2.10;99.90;;;;;;5024456;28;20037;-82
2024/01/21 09:24:34;;;;;;;10.05;4.93;;;2.10;99.90;;;;;;5028635;28;20479;-84
2024/01/21 09:27:00;;;;;;;9.73;4.05;;;2.20;99.90;;;;;;5026338;28;20053;-83
2024/01/21 09:29:26;;;;;;;9.35;4.90;;;2.20;99.90;;;;;;5029290;28;20061;-84
2024/01/21 09:31:57;;;;;;;10.38;4.50;;;2.20;99.90;;;;;;5018322;28;20392;-82
2024/01/21 09:34:23;;;;;;;10.43;4.63;;;2.20;99.90;;;;;;5024682;28;20056;-84
2024/01/21 09:36:51;;;;;;;12.48;4.30;;;2.60;99.90;;;;;;5026534;28;20046;-82
2024/01/21 09:39:18;;;;;;;9.55;4.93;;;2.30;99.90;;;;;;5020426;28;20046;-82
2024/01/21 09:41:49;;;;;;;8.95;4.50;;;2.30;99.90;;;;;;5029587;28;20079;-84
2024/01/21 09:44:17;;;;;;;10.00;4.57;;;2.40;99.90;;;;;;5024461;28;20499;-83
2024/01/21 09:46:43;;;;;;;9.43;4.65;;;2.40;99.90;;;;;;5016244;28;20053;-83
2024/01/21 09:49:10;;;;;;;9.60;4.68;;;2.40;99.90;;;;;;5032909;28;20068;-82
2024/01/21 09:51:37;;;;;;;9.23;4.55;;;2.40;99.90;;;;;;5033959;28;20144;-83
2024/01/21 09:54:05;;;;;;;8.27;4.38;;;2.40;99.90;;;;;;5012024;28;20088;-83
2024/01/21 09:56:30;;;;;;;8.90;4.85;;;2.40;99.90;;;;;;5034079;28;20411;-82
2024/01/21 09:58:57;;;;;;;8.82;4.93;;;2.50;99.90;;;;;;5028685;28;20049;-83
2024/01/21 10:01:23;;;;;;;9.10;4.72;;;2.50;99.90;;;;;;5030964;28;20045;-81
2024/01/21 10:03:49;;;;;;;9.23;4.40;;;2.60;99.90;;;;;;5029124;28;20049;-83
2024/01/21 10:06:16;;;;;;;9.38;4.65;;;2.50;99.90;;;;;;5031159;28;20053;-82
2024/01/21 10:08:45;;;;;;;10.45;4.45;;;2.50;99.90;;;;;;5034407;28;20057;-82
2024/01/21 10:11:11;;;;;;;9.75;5.53;;;2.50;99.90;;;;;;5032599;28;20060;-84
2024/01/21 10:13:38;;;;;;;11.57;5.88;;;2.60;99.90;;;;;;5032772;28;20046;-81
2024/01/21 10:16:08;;;;;;;9.38;4.85;;;2.60;99.90;;;;;;5028838;28;20049;-83
2024/01/21 10:18:34;;;;;;;7.65;3.95;;;2.70;99.90;;;;;;5029172;28;20356;-82
2024/01/21 10:21:04;;;;;;;9.77;5.15;;;2.70;99.90;;;;;;5033037;28;20041;-82
2024/01/21 10:23:30;;;;;;;8.40;4.25;;;2.80;99.90;;;;;;5025752;28;20072;-82
2024/01/21 10:25:55;;;;;;;8.43;5.28;;;2.80;99.90;;;;;;5025697;28;20053;-83
2024/01/21 10:28:22;;;;;;;9.93;5.47;;;2.80;99.90;;;;;;5021745;28;20048;-85
2024/01/21 10:30:48;;;;;;;10.68;4.43;;;2.80;99.90;;;;;;5022657;28;20045;-84
2024/01/21 10:33:14;;;;;;;20.08;10.00;;;2.80;99.90;;;;;;5032422;28;20053;-83
2024/01/21 10:35:41;;;;;;;10.80;5.50;;;2.90;99.90;;;;;;5028086;28;20041;-83
2024/01/21 10:38:11;;;;;;;12.07;6.05;;;2.90;99.90;;;;;;5027613;28;20064;-81
2024/01/21 10:40:44;;;;;;;33.45;14.27;;;2.90;99.90;;;;;;5030797;28;20453;-82
2024/01/21 10:43:13;;;;;;;17.08;7.68;;;3.00;99.90;;;;;;5025949;28;20056;-84
2024/01/21 10:45:49;;;;;;;10.57;5.07;;;3.10;99.90;;;;;;5024179;28;20053;-84
2024/01/21 10:48:16;;;;;;;11.27;4.85;;;3.10;99.90;;;;;;5023180;28;20077;-82
2024/01/21 10:50:42;;;;;;;10.55;5.47;;;3.20;99.90;;;;;;5027116;28;20057;-81
2024/01/21 10:53:11;;;;;;;10.48;5.38;;;3.10;99.90;;;;;;5028066;28;20041;-82
2024/01/21 10:55:40;;;;;;;10.77;5.20;;;3.20;99.90;;;;;;5028987;28;20387;-82
2024/01/21 10:58:09;;;;;;;10.00;5.20;;;3.20;99.90;;;;;;5031829;28;20060;-83
2024/01/21 11:00:37;;;;;;;10.57;5.13;;;3.20;99.90;;;;;;5022078;28;20128;-81
2024/01/21 11:03:25;;;;;;;13.50;5.60;;;3.50;99.90;;;;;;5029500;28;20328;-80
2024/01/21 11:06:03;;;;;;;13.10;5.65;;;3.30;99.90;;;;;;5021887;28;20045;-84
2024/01/21 11:08:29;;;;;;;10.50;5.25;;;3.20;99.90;;;;;;5032141;28;21222;-85
2024/01/21 11:11:11;;;;;;;9.15;4.75;;;3.30;99.90;;;;;;5030493;28;20119;-84
2024/01/21 11:13:50;;;;;;;11.93;5.63;;;3.30;99.90;;;;;;5029266;28;20042;-84
2024/01/21 11:16:25;;;;;;;10.25;5.00;;;3.30;99.90;;;;;;5030601;28;20144;-84
2024/01/21 11:18:51;;;;;;;11.30;6.10;;;3.30;99.90;;;;;;5030390;28;20096;-87
2024/01/21 11:21:20;;;;;;;10.75;5.63;;;3.40;99.90;;;;;;5031192;28;20049;-82
2024/01/21 11:24:02;;;;;;;11.68;5.25;;;3.40;99.90;;;;;;5027397;28;20140;-84
2024/01/21 11:26:29;;;;;;;10.13;4.97;;;3.40;99.90;;;;;;5015166;28;20058;-83
2024/01/21 11:28:58;;;;;;;12.90;5.55;;;3.40;99.90;;;;;;5029125;28;20438;-83
2024/01/21 11:31:25;;;;;;;13.00;6.07;;;3.40;99.90;;;;;;5031513;28;20060;-85
2024/01/21 11:34:10;;;;;;;11.10;6.20;;;3.50;99.90;;;;;;5022950;28;20048;-85
2024/01/21 11:36:38;;;;;;;11.07;5.35;;;3.50;99.90;;;;;;5027399;28;20050;-86
2024/01/21 11:39:05;;;;;;;11.88;5.72;;;3.60;99.90;;;;;;5031580;28;20044;-86
2024/01/21 11:41:41;;;;;;;9.32;5.35;;;3.70;99.90;;;;;;5032921;28;20055;-82
2024/01/21 11:44:12;;;;;;;10.43;5.90;;;3.50;99.90;;;;;;5029060;28;20483;-85
2024/01/21 11:46:38;;;;;;;13.90;5.28;;;3.50;99.90;;;;;;5020056;28;20056;-83
2024/01/21 11:49:04;;;;;;;11.68;5.57;;;3.60;99.90;;;;;;5030930;28;20049;-85
2024/01/21 11:51:30;;;;;;;13.02;5.45;;;3.50;99.90;;;;;;5028733;28;20103;-82
2024/01/21 11:53:56;;;;;;;12.45;5.90;;;3.60;99.90;;;;;;5013260;28;20057;-81
2024/01/21 11:56:21;;;;;;;11.05;5.45;;;3.60;99.90;;;;;;5020695;28;20141;-82
2024/01/21 11:58:48;;;;;;;12.20;5.45;;;3.90;99.90;;;;;;5030820;28;20049;-82
2024/01/21 12:01:14;;;;;;;12.43;5.78;;;3.60;99.90;;;;;;5029934;28;20044;-83
2024/01/21 12:03:39;;;;;;;10.98;5.50;;;3.60;99.90;;;;;;5032122;28;20045;-83
2024/01/21 12:06:06;;;;;;;8.52;4.50;;;3.60;99.90;;;;;;5029702;28;20490;-84
2024/01/21 12:08:32;;;;;;;14.20;6.70;;;4.20;99.90;;;;;;5023983;28;20114;-83
2024/01/21 12:10:58;;;;;;;12.25;5.78;;;3.60;99.90;;;;;;5026309;28;20037;-80
2024/01/21 12:13:24;;;;;;;11.88;6.00;;;3.60;99.90;;;;;;5022801;28;20046;-82
2024/01/21 12:15:52;;;;;;;10.20;5.65;;;3.60;99.90;;;;;;5028222;28;20056;-81
2024/01/21 12:18:18;;;;;;;12.45;5.85;;;3.60;99.90;;;;;;5024106;28;20425;-82
2024/01/21 12:20:44;;;;;;;11.73;5.93;;;3.60;99.90;;;;;;5020833;28;20045;-88
2024/01/21 12:23:21;;;;;;;11.38;6.18;;;3.60;99.90;;;;;;5007697;28;20069;-81
2024/01/21 12:25:48;;;;;;;11.35;6.25;;;3.60;99.90;;;;;;5025069;28;20046;-82
2024/01/21 12:28:13;;;;;;;9.70;5.95;;;3.60;99.90;;;;;;5024941;28;20052;-82
2024/01/21 12:30:39;;;;;;;12.05;7.13;;;3.60;99.90;;;;;;5019303;28;20061;-82
2024/01/21 12:33:05;;;;;;;13.60;6.80;;;3.60;99.90;;;;;;5022828;28;20062;-80
2024/01/21 12:35:31;;;;;;;11.20;6.28;;;3.60;99.90;;;;;;5025979;28;20057;-82
2024/01/21 12:37:59;;;;;;;12.98;6.15;;;3.60;99.90;;;;;;5025033;28;20049;-81
2024/01/21 12:40:25;;;;;;;12.63;6.65;;;3.60;99.90;;;;;;5022411;28;20360;-82
2024/01/21 12:42:52;;;;;;;12.15;6.38;;;3.60;99.90;;;;;;5024430;28;20041;-82
2024/01/21 12:45:18;;;;;;;14.13;7.50;;;3.60;99.90;;;;;;5004570;28;20115;-81
2024/01/21 12:47:44;;;;;;;13.35;6.50;;;3.60;99.90;;;;;;5025856;28;20088;-82
2024/01/21 12:50:10;;;;;;;14.48;7.43;;;3.80;99.90;;;;;;5024709;28;20458;-82